x

Santa Monica Basin - 33nm Wsw Of Santa Monica, Ca (46025) Wave Buoy

3:50am - Sat 19th Apr 2014 All times are PDT. -7 hours from GMT.

  • Sig Wave height 3.6ft
  • Swell Direction
  • Peak Period 9s
  • Average Period 6s
  • Wind
    7mph, 9mph gusts
  • Sea Temp 60°f
  • 空気 Temp 58°f
  • Sea Pressure 1013.8mb
  • Santa Monica Basin - 33nm Wsw Of Santa Monica, Ca
  • Santa Monica Basin - 33nm Wsw Of Santa Monica, Ca

More Historic Weather Station data

Upgrade to MSW Pro to gain access to the past 30 days of data for over 8000 Wavebouys and Weather Stations around the globe.

Join Pro

Comparision Forecast

View Surf forecast
   
Sat 04/19 3:50am 3.5ft 9s 6s 7 9 mph 1013.8mb 60f 58f
2:50am 4ft 11s 6s 4 7 mph 1013.1mb 60f 58f
1:50am 4ft 6s 6s 7 9 mph 1013.3mb 60f 59f
12:50am 4.5ft 6s 6s 7 9 mph 1013.5mb 60f 59f
Fri 04/18 11:50pm 4.5ft 11s 6s 7 9 mph 1013.7mb 60f 60f
10:50pm 4.5ft 11s 6s 7 9 mph 1013.5mb 61f 60f
9:50pm 4ft 10s 6s 11
mph
1013.2mb 61f 59f
8:50pm 3.5ft 9s 6s 11 13 mph 1012.8mb 61f 60f
7:50pm 4ft 12s 6s 9 11 mph 1012.4mb 61f 60f
6:50pm 3.5ft 11s 7s 9 11 mph 1012.1mb 62f 60f
5:50pm 4ft 12s 7s 9
mph
1012mb 62f 61f
4:50pm 3.5ft 13s 7s 9 11 mph 1012.1mb 62f 61f
3:50pm 3ft 11s 7s 7 9 mph 1012.3mb 63f 61f
2:50pm 3ft 12s 7s 7
mph
1012.6mb 62f 61f
1:50pm 3ft 12s 7s 4
mph
1013mb 61f 61f
12:50pm 3ft 12s 6s 2
mph
1013mb 61f 61f
11:50am 3ft 13s 6s 4
mph
1013.2mb 61f 60f
10:50am 2.5ft 12s 6s 4 7 mph 1013.2mb 60f 59f
9:50am 3.5ft 13s 6s 7 9 mph 1012.9mb 60f 59f
8:50am 3.5ft 11s 6s 7
mph
1012.6mb 60f 60f
7:50am 4.5ft 13s 8s 7
mph
1012.4mb 60f 59f
6:50am 3.5ft 13s 7s 7
mph
1011.8mb 60f 59f
5:50am 3.5ft 12s 6s 9 11 mph 1011.1mb 60f 59f
4:50am 3.5ft 12s 7s 9 11 mph 1011.1mb 60f 60f
3:50am 3.5ft 13s 7s 11 13 mph 1011.3mb 60f 60f
2:50am 3ft 13s 7s 11 13 mph 1010.9mb 60f 60f
1:50am 3.5ft 13s 7s 9
mph
1011.3mb 60f 60f
12:50am 3.5ft 13s 8s 7 9 mph 1011.7mb 61f 59f
Thu 04/17 11:50pm 3ft 14s 7s 7 9 mph 1011.8mb 61f 59f
10:50pm 3.5ft 13s 7s 4 7 mph 1012.1mb 61f 60f
9:50pm 3ft 13s 6s 4
mph
1012.4mb 61f 60f
8:50pm 3ft 12s 7s 4
mph
1011.7mb 61f 60f
7:50pm 3ft 13s 7s 7 9 mph 1011.2mb 61f 60f
6:50pm 3ft 14s 7s 2 4 mph 1010.8mb 61f 59f
5:50pm 3ft 11s 7s 2 4 mph 1010.8mb 61f 60f
4:50pm 3ft 14s 7s 4 7 mph 1010.8mb 61f 60f
3:50pm 3.5ft 14s 8s 9
mph
1011.2mb 61f 60f
2:50pm 3.5ft 11s 7s 7 9 mph 1011.8mb 61f 60f
1:50pm 3.5ft 12s 7s 4 7 mph 1011.9mb 60f 60f
12:50pm 3.5ft 10s 6s 4 7 mph 1012.2mb 60f 59f
11:50am 3ft 14s 6s 7 9 mph 1012.7mb 60f 59f
10:50am 3ft 13s 6s 9 11 mph 1012.7mb 60f 60f
9:50am 3ft 14s 6s 11 13 mph 1012.2mb 60f 59f
8:50am 3ft 14s 6s 13 16 mph 1011.6mb 60f 59f
7:50am 3.5ft 12s 6s 11 13 mph 1011.3mb 60f 59f
6:50am 3.5ft 6s 7s 11 13 mph 1010.8mb 60f 58f
4:50am 3.5ft 14s 7s 11 13 mph 1010.7mb 60f 58f
3:50am 3.5ft 11s 6s 13 16 mph 1010.4mb 60f 58f
2:50am 3.5ft 11s 6s 11 13 mph 1010.3mb 60f 59f
1:50am 3ft 14s 6s 13 18 mph 1010.3mb 60f 58f
12:50am 3.5ft 9s 7s 13 18 mph 1010.5mb 60f 57f
Wed 04/16 11:50pm 3.5ft 15s 7s 9 13 mph 1010.6mb 60f 57f
10:50pm 3.5ft 12s 6s 9 13 mph 1010.4mb 61f 57f
9:50pm 3.5ft 12s 6s 7
mph
1010.3mb 61f 58f
8:50pm 3.5ft 12s 6s 4
mph
1009.9mb 61f 58f
7:50pm 3.5ft 15s 6s 2 4 mph 1009mb 61f 57f
6:50pm 3.5ft 12s 7s 4
mph
1008.9mb 61f 58f
5:50pm 3.5ft 10s 6s 7 9 mph 1008.9mb 61f 58f
4:50pm 3.5ft 8s 7s 9
mph
1009.1mb 62f 58f
3:50pm 3.5ft 13s 7s 7 9 mph 1009.5mb 62f 59f
2:50pm 3.5ft 14s 7s 7 9 mph 1009.9mb 62f 59f
1:50pm 3.5ft 15s 6s 4 7 mph 1010.2mb 62f 59f
12:50pm 3.5ft 15s 6s  -  2 mph 1010.7mb 61f 58f
11:50am 3.5ft 15s 6s 4 7 mph 1011.3mb 60f 58f
10:50am 3.5ft 15s 6s 7 9 mph 1011.4mb 60f 58f
9:50am 3.5ft 13s 6s 4 7 mph 1010.7mb 60f 58f
8:50am 4.5ft 6s 6s 4 9 mph 1011.3mb 60f 57f
7:50am 4.5ft 6s 6s 4 9 mph 1011.2mb 60f 57f
6:50am 4.5ft 7s 6s 7 11 mph 1010.5mb 60f 57f
5:50am 4ft 7s 6s 9 11 mph 1010.1mb 60f 58f
4:50am 3.5ft 7s 6s 13 18 mph 1010.1mb 60f 58f
3:50am 3.5ft 7s 6s 16 18 mph 1010.4mb 60f 58f
2:50am 4ft 14s 7s 7
mph
1010.4mb 60f 58f
1:50am 3.5ft 13s 6s 2 4 mph 1010.6mb 60f 58f
12:50am 3.5ft 14s 6s  -  2 mph 1010.9mb 60f 58f
Tue 04/15 11:50pm 3.5ft 5s 5s 7
mph
1010.8mb 60f 58f
10:50pm 3.5ft 14s 5s 7 9 mph 1010.9mb 60f 59f
9:50pm 3.5ft 15s 5s 11 13 mph 1010.7mb 60f 59f
8:50pm 3.5ft 14s 5s 13 16 mph 1010.4mb 61f 59f
7:50pm 2.5ft 13s 5s 11 13 mph 1010.3mb 61f 59f
6:50pm 3ft 14s 6s 11 13 mph 1010.3mb 61f 58f
5:50pm 2.5ft 15s 7s 11
mph
1010.6mb 61f 57f
4:50pm 2.5ft 15s 7s 9 11 mph 1011.2mb 61f 56f
3:50pm 2.5ft 15s 7s 9 11 mph 1011.8mb 62f 55f
2:50pm 2.5ft 15s 7s 9 11 mph 1012.7mb 62f 56f
1:50pm 2.5ft 16s 7s 7 11 mph 1013.5mb 63f 56f
12:50pm 2.5ft 14s 6s 4 7 mph 1014mb 61f 55f